Time;durP1;ratioP1;P1;durP2;ratioP2;P2;SDS_P1;SDS_P2;PMS_P1;PMS_P2;Temp;Humidity;BMP_temperature;BMP_pressure;BME280_temperature;BME280_humidity;BME280_pressure;Samples;Min_cycle;Max_cycle;Signal;HPM_P1;HPM_P2
2024/01/10 00:02:34;;;;;;;13.38;11.38;;;14.20;54.50;;;;;;4188273;28;20051;-47
2024/01/10 00:05:17;;;;;;;15.50;12.95;;;14.20;54.10;;;;;;4204851;28;20161;-45
2024/01/10 00:08:00;;;;;;;17.63;12.85;;;14.20;53.70;;;;;;4216886;27;20177;-46
2024/01/10 00:10:41;;;;;;;14.82;12.07;;;14.20;53.90;;;;;;4221852;27;20062;-48
2024/01/10 00:13:22;;;;;;;12.23;9.27;;;14.20;53.40;;;;;;4221500;27;20124;-44
2024/01/10 00:16:03;;;;;;;15.80;12.07;;;14.10;53.80;;;;;;4221278;27;20066;-46
2024/01/10 00:18:44;;;;;;;15.60;12.45;;;14.00;54.10;;;;;;4221027;27;20414;-45
2024/01/10 00:21:27;;;;;;;14.80;11.75;;;14.00;54.90;;;;;;4204548;28;20383;-47
2024/01/10 00:24:08;;;;;;;17.42;13.25;;;14.00;54.80;;;;;;4203460;28;20047;-35
2024/01/10 00:26:49;;;;;;;20.13;12.15;;;14.00;54.90;;;;;;4203998;28;20532;-35
2024/01/10 00:29:30;;;;;;;14.23;11.82;;;14.10;55.10;;;;;;4204379;28;20071;-35
2024/01/10 00:32:11;;;;;;;13.82;11.57;;;14.10;55.40;;;;;;4204179;28;20055;-35
2024/01/10 00:34:52;;;;;;;15.65;12.90;;;14.20;55.30;;;;;;4204633;27;20093;-35
2024/01/10 00:37:35;;;;;;;13.88;11.65;;;14.30;55.20;;;;;;4204450;28;20051;-36
2024/01/10 00:40:16;;;;;;;12.30;9.85;;;14.40;55.00;;;;;;4204297;28;20055;-36
2024/01/10 00:42:57;;;;;;;16.27;11.77;;;14.70;54.70;;;;;;4204556;28;20125;-35
2024/01/10 00:45:38;;;;;;;14.05;11.25;;;14.80;54.10;;;;;;4220638;27;20084;-36
2024/01/10 00:48:19;;;;;;;14.20;11.40;;;14.90;53.50;;;;;;4221051;27;20054;-35
2024/01/10 00:51:00;;;;;;;13.63;10.80;;;15.00;53.40;;;;;;4220696;27;20050;-36
2024/01/10 00:53:43;;;;;;;14.23;10.73;;;15.10;53.40;;;;;;4220836;27;20181;-36
2024/01/10 00:56:24;;;;;;;19.10;11.20;;;15.20;53.50;;;;;;4207136;27;20079;-36
2024/01/10 00:59:05;;;;;;;13.82;11.63;;;15.40;53.50;;;;;;4204830;27;20043;-35
2024/01/10 01:01:46;;;;;;;13.48;9.88;;;15.40;53.40;;;;;;4204178;27;20051;-35
2024/01/10 01:04:27;;;;;;;14.90;11.65;;;15.60;53.20;;;;;;4218025;27;20059;-35
2024/01/10 01:07:08;;;;;;;13.52;11.20;;;15.60;53.10;;;;;;4216444;27;20063;-35
2024/01/10 01:09:50;;;;;;;13.57;11.10;;;15.60;53.20;;;;;;4190118;27;20064;-45
2024/01/10 01:12:31;;;;;;;12.75;10.48;;;15.60;53.10;;;;;;4187567;28;20055;-46
2024/01/10 01:15:12;;;;;;;13.15;10.95;;;15.50;53.00;;;;;;4188892;27;20059;-45
2024/01/10 01:17:53;;;;;;;16.45;12.30;;;15.40;53.30;;;;;;4203528;27;20059;-45
2024/01/10 01:20:34;;;;;;;15.15;11.68;;;15.40;53.50;;;;;;4203562;28;20097;-48
2024/01/10 01:23:15;;;;;;;12.38;10.85;;;15.40;53.70;;;;;;4209627;27;20055;-45
2024/01/10 01:26:05;;;;;;;15.35;10.93;;;15.40;53.80;;;;;;4220926;27;20096;-46
2024/01/10 01:28:46;;;;;;;12.55;11.20;;;15.40;53.70;;;;;;4220435;27;20104;-45
2024/01/10 01:31:27;;;;;;;15.65;11.65;;;15.40;53.50;;;;;;4213232;27;20100;-44
2024/01/10 01:34:08;;;;;;;14.05;10.98;;;15.40;53.30;;;;;;4203039;28;20051;-43
2024/01/10 01:36:51;;;;;;;14.27;12.18;;;15.30;53.50;;;;;;4215793;27;20058;-45
2024/01/10 01:39:32;;;;;;;14.05;11.77;;;15.30;53.60;;;;;;4220566;27;20148;-43
2024/01/10 01:42:14;;;;;;;15.05;11.75;;;15.20;53.50;;;;;;4221726;27;20050;-44
2024/01/10 01:44:55;;;;;;;15.52;12.13;;;15.20;53.90;;;;;;4203276;27;20793;-44
2024/01/10 01:47:36;;;;;;;15.50;12.45;;;15.00;53.90;;;;;;4202519;28;20509;-44
2024/01/10 01:50:18;;;;;;;15.27;11.52;;;15.00;54.20;;;;;;4187272;28;20060;-44
2024/01/10 01:53:00;;;;;;;15.15;12.32;;;15.00;54.00;;;;;;4186922;28;20048;-43
2024/01/10 01:55:41;;;;;;;14.20;11.60;;;15.10;54.20;;;;;;4187477;28;20125;-43
2024/01/10 01:58:24;;;;;;;13.55;11.23;;;15.10;53.90;;;;;;4198936;27;20055;-43
2024/01/10 02:01:06;;;;;;;13.32;11.65;;;15.30;53.50;;;;;;4203257;27;20129;-45
2024/01/10 02:03:47;;;;;;;15.45;12.02;;;15.40;53.30;;;;;;4220283;27;20051;-47
2024/01/10 02:06:29;;;;;;;12.70;11.15;;;15.50;52.80;;;;;;4220207;27;20395;-45
2024/01/10 02:09:10;;;;;;;15.63;12.52;;;15.60;52.60;;;;;;4203635;28;20486;-44
2024/01/10 02:11:52;;;;;;;12.30;10.05;;;15.70;51.90;;;;;;4207655;27;20410;-47
2024/01/10 02:14:34;;;;;;;15.05;12.18;;;15.80;52.00;;;;;;4218986;27;20054;-44
2024/01/10 02:17:16;;;;;;;14.02;11.15;;;15.80;52.10;;;;;;4220225;27;20068;-45
2024/01/10 02:20:09;;;;;;;13.43;11.82;;;15.80;51.60;;;;;;4211763;27;20059;-45
2024/01/10 02:22:50;;;;;;;14.25;11.15;;;15.90;51.70;;;;;;4202274;28;20059;-45
2024/01/10 02:25:33;;;;;;;13.25;11.82;;;15.90;51.40;;;;;;4202903;28;20066;-44
2024/01/10 02:28:13;;;;;;;13.35;10.52;;;15.80;51.30;;;;;;4203215;28;20093;-43
2024/01/10 02:30:56;;;;;;;13.40;11.60;;;15.80;51.20;;;;;;4202610;28;20071;-46
2024/01/10 02:33:36;;;;;;;13.38;11.73;;;15.70;51.10;;;;;;4186809;28;20054;-49
2024/01/10 02:36:18;;;;;;;13.13;11.15;;;15.50;50.60;;;;;;4186569;28;20178;-47
2024/01/10 02:38:59;;;;;;;12.85;10.30;;;15.40;51.60;;;;;;4186859;28;20052;-46
2024/01/10 02:41:41;;;;;;;13.05;9.88;;;15.30;52.10;;;;;;4184969;28;20052;-48
2024/01/10 02:44:23;;;;;;;12.93;10.90;;;15.40;52.00;;;;;;4187630;28;20052;-48
2024/01/10 02:47:04;;;;;;;;;;;15.50;50.50;;;;;;4186818;28;20055;-46
2024/01/10 02:49:45;;;;;;;13.90;11.55;;;15.60;52.30;;;;;;4195262;28;19927;-47
2024/01/10 02:52:26;;;;;;;12.80;11.30;;;15.70;52.40;;;;;;4203210;28;20492;-47
2024/01/10 02:55:08;;;;;;;14.77;11.88;;;15.70;52.10;;;;;;4203029;28;20051;-46
2024/01/10 02:57:50;;;;;;;13.98;11.07;;;15.70;52.00;;;;;;4187870;28;20084;-49
2024/01/10 03:00:32;;;;;;;12.70;10.85;;;15.80;52.00;;;;;;4185335;28;20101;-46
2024/01/10 03:03:13;;;;;;;12.95;10.60;;;15.80;52.00;;;;;;4186587;28;20511;-44
2024/01/10 03:05:54;;;;;;;12.50;10.77;;;15.90;51.50;;;;;;4186835;28;20067;-49
2024/01/10 03:08:35;;;;;;;12.15;10.52;;;15.90;51.50;;;;;;4201726;28;20097;-44
2024/01/10 03:11:17;;;;;;;12.63;11.20;;;15.90;51.40;;;;;;4205701;28;20073;-47
2024/01/10 03:14:04;;;;;;;12.27;10.70;;;15.90;51.30;;;;;;4204189;28;20067;-46
2024/01/10 03:16:45;;;;;;;11.32;9.63;;;15.90;51.90;;;;;;4205628;28;20066;-45
2024/01/10 03:19:26;;;;;;;13.93;10.60;;;15.80;52.10;;;;;;4201682;27;20407;-44
2024/01/10 03:22:07;;;;;;;14.23;10.73;;;15.80;52.60;;;;;;4189214;28;20097;-45
2024/01/10 03:24:48;;;;;;;12.00;10.05;;;15.70;52.70;;;;;;4187749;28;20059;-45
2024/01/10 03:27:29;;;;;;;11.00;9.87;;;15.60;52.70;;;;;;4188075;28;20060;-45
2024/01/10 03:30:12;;;;;;;11.98;9.20;;;15.40;52.70;;;;;;4197510;28;20455;-47
2024/01/10 03:32:54;;;;;;;12.95;10.85;;;15.30;53.10;;;;;;4190511;28;20055;-44
2024/01/10 03:35:34;;;;;;;14.70;10.70;;;15.30;53.00;;;;;;4188758;28;20121;-46
2024/01/10 03:38:16;;;;;;;12.60;10.77;;;15.40;53.10;;;;;;4204581;27;20383;-45
2024/01/10 03:40:57;;;;;;;12.70;10.85;;;15.50;52.70;;;;;;4205238;28;20541;-45
2024/01/10 03:43:38;;;;;;;13.50;11.32;;;15.50;52.80;;;;;;4205128;28;20055;-47
2024/01/10 03:46:21;;;;;;;13.82;11.93;;;15.60;52.50;;;;;;4214224;27;20082;-47
2024/01/10 03:49:02;;;;;;;12.35;11.00;;;15.80;52.60;;;;;;4221815;27;20054;-46
2024/01/10 03:51:43;;;;;;;15.70;11.50;;;15.80;52.30;;;;;;4221142;27;20055;-47
2024/01/10 03:54:24;;;;;;;;;;;15.90;52.70;;;;;;4221961;27;20071;-48
2024/01/10 03:57:05;;;;;;;13.73;11.50;;;16.00;52.40;;;;;;4205146;28;19927;-47
2024/01/10 03:59:46;;;;;;;11.25;8.95;;;15.90;52.50;;;;;;4203292;27;20051;-48
2024/01/10 04:02:28;;;;;;;14.38;10.95;;;15.90;52.40;;;;;;4204763;27;20159;-47
2024/01/10 04:05:12;;;;;;;14.18;10.88;;;16.00;52.10;;;;;;4203475;28;20051;-44
2024/01/10 04:07:56;;;;;;;11.85;10.25;;;15.90;52.50;;;;;;4211647;27;20082;-46
2024/01/10 04:10:37;;;;;;;13.30;11.35;;;15.80;52.10;;;;;;4220447;27;20050;-44
2024/01/10 04:13:18;;;;;;;13.03;11.27;;;15.70;52.50;;;;;;4216363;27;20054;-43
2024/01/10 04:15:59;;;;;;;14.00;11.23;;;15.60;52.70;;;;;;4238608;27;20176;-46
2024/01/10 04:18:41;;;;;;;14.15;11.57;;;15.50;53.30;;;;;;4238564;27;20042;-46
2024/01/10 04:21:22;;;;;;;13.45;12.05;;;15.40;53.40;;;;;;4203526;28;20050;-47
2024/01/10 04:24:04;;;;;;;11.98;10.73;;;15.40;52.90;;;;;;4204698;28;20055;-44
2024/01/10 04:26:45;;;;;;;14.45;12.07;;;15.50;53.10;;;;;;4204440;28;20102;-44
2024/01/10 04:29:26;;;;;;;13.05;11.23;;;15.60;53.10;;;;;;4204316;28;20051;-46
2024/01/10 04:32:08;;;;;;;15.30;11.70;;;15.70;53.00;;;;;;4203520;28;20055;-44
2024/01/10 04:34:50;;;;;;;13.35;11.27;;;15.80;53.10;;;;;;4204150;28;20197;-44
2024/01/10 04:37:31;;;;;;;13.32;11.73;;;15.90;53.10;;;;;;4203032;28;20051;-44
2024/01/10 04:40:12;;;;;;;13.98;11.65;;;16.00;52.90;;;;;;4208118;27;20559;-47
2024/01/10 04:42:53;;;;;;;12.90;10.88;;;16.00;51.80;;;;;;4216552;27;20092;-45
2024/01/10 04:45:34;;;;;;;13.45;11.73;;;16.10;52.70;;;;;;4211009;27;20181;-45
2024/01/10 04:48:15;;;;;;;14.35;11.70;;;16.10;51.90;;;;;;4187352;28;20410;-46
2024/01/10 04:50:58;;;;;;;12.60;10.98;;;16.10;52.00;;;;;;4187859;27;20088;-45
2024/01/10 04:53:39;;;;;;;12.50;11.18;;;16.10;51.70;;;;;;4186744;28;20684;-44
2024/01/10 04:56:20;;;;;;;13.05;10.98;;;16.10;51.70;;;;;;4194764;27;20129;-44
2024/01/10 04:59:01;;;;;;;13.50;10.23;;;16.00;51.30;;;;;;4203629;27;20402;-46
2024/01/10 05:01:42;;;;;;;13.30;11.27;;;15.90;51.80;;;;;;4202458;28;20051;-45
2024/01/10 05:04:23;;;;;;;12.70;11.25;;;15.80;51.50;;;;;;4186516;28;20060;-45
2024/01/10 05:07:06;;;;;;;13.40;11.55;;;15.60;52.50;;;;;;4203984;28;20055;-44
2024/01/10 05:09:47;;;;;;;13.55;11.05;;;15.60;52.50;;;;;;4203980;28;20051;-45
2024/01/10 05:12:28;;;;;;;13.68;10.65;;;15.60;51.20;;;;;;4204252;27;20494;-43
2024/01/10 05:15:09;;;;;;;13.98;11.15;;;15.70;51.90;;;;;;4202539;27;20059;-45
2024/01/10 05:17:50;;;;;;;13.00;11.60;;;15.70;51.60;;;;;;4217984;27;20054;-45
2024/01/10 05:20:32;;;;;;;13.23;11.90;;;15.80;51.30;;;;;;4211270;27;20074;-43
2024/01/10 05:23:15;;;;;;;12.65;11.30;;;15.80;51.50;;;;;;4204399;28;20123;-44
2024/01/10 05:25:56;;;;;;;12.25;10.98;;;15.90;51.50;;;;;;4203655;28;20055;-43
2024/01/10 05:28:37;;;;;;;14.50;11.77;;;15.90;51.70;;;;;;4204038;28;20051;-43
2024/01/10 05:31:18;;;;;;;14.25;12.52;;;15.90;51.40;;;;;;4202974;28;20052;-48
2024/01/10 05:33:59;;;;;;;14.65;13.02;;;15.80;51.90;;;;;;4206812;27;20074;-45
2024/01/10 05:36:40;;;;;;;14.40;12.85;;;15.90;52.00;;;;;;4220524;27;20050;-46
2024/01/10 05:39:22;;;;;;;12.98;10.20;;;15.80;51.70;;;;;;4220369;27;20182;-47
2024/01/10 05:42:05;;;;;;;15.35;12.07;;;15.80;52.60;;;;;;4203504;28;20055;-45
2024/01/10 05:44:46;;;;;;;14.18;11.90;;;15.90;52.40;;;;;;4190660;28;20096;-44
2024/01/10 05:47:27;;;;;;;15.25;12.43;;;15.90;51.70;;;;;;4203690;28;20104;-50
2024/01/10 05:50:09;;;;;;;17.67;12.40;;;15.90;52.70;;;;;;4203829;28;20047;-45
2024/01/10 05:52:50;;;;;;;16.45;13.40;;;16.00;51.40;;;;;;4203326;28;20537;-43
2024/01/10 05:55:32;;;;;;;13.98;12.48;;;16.00;51.00;;;;;;4203429;28;20082;-48
2024/01/10 05:58:13;;;;;;;16.33;13.63;;;16.10;51.40;;;;;;4203605;28;20075;-48
2024/01/10 06:00:54;;;;;;;14.00;12.30;;;16.10;51.60;;;;;;4203594;28;20194;-45
2024/01/10 06:03:36;;;;;;;14.90;12.43;;;16.10;51.20;;;;;;4202238;28;20073;-48
2024/01/10 06:06:17;;;;;;;16.33;13.20;;;16.10;51.10;;;;;;4206791;28;20055;-47
2024/01/10 06:08:58;;;;;;;15.17;13.37;;;16.10;51.20;;;;;;4202615;28;20051;-45
2024/01/10 06:11:43;;;;;;;14.90;12.18;;;16.00;51.00;;;;;;4203863;28;20055;-46
2024/01/10 06:14:24;;;;;;;15.38;13.30;;;16.00;51.30;;;;;;4202986;28;20493;-48
2024/01/10 06:17:05;;;;;;;15.75;12.52;;;16.00;51.80;;;;;;4219786;27;20058;-47
2024/01/10 06:19:47;;;;;;;16.70;13.48;;;16.00;50.80;;;;;;4234001;27;20062;-48
2024/01/10 06:22:28;;;;;;;15.55;13.80;;;16.00;51.00;;;;;;4202685;28;20124;-47
2024/01/10 06:25:10;;;;;;;16.60;12.52;;;15.90;51.10;;;;;;4203274;28;20059;-45
2024/01/10 06:27:53;;;;;;;13.88;12.40;;;15.90;51.70;;;;;;4203165;28;20062;-45
2024/01/10 06:30:35;;;;;;;18.35;14.00;;;15.80;51.90;;;;;;4201523;28;20051;-47
2024/01/10 06:33:16;;;;;;;17.60;13.25;;;15.70;51.40;;;;;;4214812;27;20124;-46
2024/01/10 06:35:58;;;;;;;17.92;12.77;;;15.60;52.40;;;;;;4219616;27;20114;-46
2024/01/10 06:38:39;;;;;;;18.02;13.80;;;15.60;53.00;;;;;;4219931;27;20054;-47
2024/01/10 06:41:24;;;;;;;17.15;13.75;;;15.60;53.00;;;;;;4219123;27;20042;-45
2024/01/10 06:44:06;;;;;;;16.73;13.32;;;15.70;52.60;;;;;;4220330;27;20059;-47
2024/01/10 06:46:47;;;;;;;16.85;13.13;;;15.90;52.40;;;;;;4221439;27;20096;-45
2024/01/10 06:49:29;;;;;;;17.20;13.55;;;15.90;51.70;;;;;;4222895;27;20050;-48
2024/01/10 06:52:10;;;;;;;20.08;14.18;;;15.90;50.30;;;;;;4222416;27;20184;-43
2024/01/10 06:54:51;;;;;;;18.23;13.80;;;15.90;48.10;;;;;;4222731;27;20081;-43
2024/01/10 06:57:32;;;;;;;18.27;12.70;;;16.00;51.00;;;;;;4191418;27;20059;-43
2024/01/10 07:00:17;;;;;;;17.55;13.05;;;16.00;51.10;;;;;;4194127;27;20064;-43
2024/01/10 07:03:01;;;;;;;18.48;15.07;;;16.00;51.70;;;;;;4205342;27;20055;-43
2024/01/10 07:05:44;;;;;;;17.98;13.93;;;16.00;50.00;;;;;;4220026;27;20054;-45
2024/01/10 07:08:26;;;;;;;18.90;14.55;;;16.00;50.60;;;;;;4216168;27;20067;-46
2024/01/10 07:11:07;;;;;;;19.77;14.48;;;16.00;50.80;;;;;;4205751;28;20055;-40
2024/01/10 07:13:48;;;;;;;19.50;13.75;;;15.90;48.60;;;;;;4214642;27;20062;-40
2024/01/10 07:16:30;;;;;;;19.73;14.32;;;15.80;48.50;;;;;;4206530;27;20051;-40
2024/01/10 07:19:13;;;;;;;23.30;14.70;;;15.80;49.40;;;;;;4215755;27;20046;-39
2024/01/10 07:21:55;;;;;;;;;;;15.90;50.90;;;;;;4205722;28;20109;-42
2024/01/10 07:24:36;;;;;;;22.33;14.27;;;16.00;52.00;;;;;;4205795;28;19973;-43
2024/01/10 07:27:18;;;;;;;21.20;14.20;;;15.90;51.70;;;;;;4206157;27;21601;-43
2024/01/10 07:29:59;;;;;;;22.05;13.35;;;16.00;54.10;;;;;;4222119;27;20055;-42
2024/01/10 07:32:43;;;;;;;19.20;13.98;;;16.00;52.90;;;;;;4206630;28;20070;-45
2024/01/10 07:35:24;;;;;;;19.45;13.52;;;16.00;50.70;;;;;;4205304;27;20403;-44
2024/01/10 07:38:07;;;;;;;20.95;14.68;;;16.00;51.30;;;;;;4205370;27;20093;-43
2024/01/10 07:40:48;;;;;;;25.25;15.23;;;15.90;49.60;;;;;;4205500;28;20059;-43
2024/01/10 07:43:29;;;;;;;18.83;12.85;;;15.90;50.20;;;;;;4206715;27;20101;-44
2024/01/10 07:46:10;;;;;;;22.58;15.00;;;16.00;47.90;;;;;;4208357;27;20418;-45
2024/01/10 07:48:53;;;;;;;22.17;14.25;;;16.00;49.40;;;;;;4214198;27;20131;-45
2024/01/10 07:51:35;;;;;;;21.48;13.93;;;15.90;47.20;;;;;;4204781;28;20067;-46
2024/01/10 07:54:16;;;;;;;19.85;13.70;;;15.80;47.60;;;;;;4213388;27;20043;-43
2024/01/10 07:56:57;;;;;;;21.15;13.75;;;15.80;48.60;;;;;;4221058;27;20059;-45
2024/01/10 07:59:38;;;;;;;20.38;13.82;;;15.80;48.20;;;;;;4204547;28;20407;-44
2024/01/10 08:02:19;;;;;;;20.45;13.75;;;15.80;45.70;;;;;;4203877;28;20047;-46
2024/01/10 08:05:05;;;;;;;19.27;13.55;;;15.70;46.00;;;;;;4187977;28;20205;-45
2024/01/10 08:07:45;;;;;;;17.98;13.50;;;15.70;48.20;;;;;;4204761;28;20092;-45
2024/01/10 08:10:28;;;;;;;20.25;13.85;;;15.70;45.30;;;;;;4211968;27;20379;-44
2024/01/10 08:13:09;;;;;;;20.70;13.98;;;15.60;46.60;;;;;;4204846;28;20173;-43
2024/01/10 08:15:50;;;;;;;21.45;13.93;;;15.60;47.10;;;;;;4195224;27;20120;-47
2024/01/10 08:18:31;;;;;;;20.42;13.60;;;15.70;45.90;;;;;;4213543;27;20098;-43
2024/01/10 08:21:14;;;;;;;21.42;14.02;;;15.70;46.10;;;;;;4204865;27;20059;-47
2024/01/10 08:23:55;;;;;;;19.27;13.77;;;15.70;47.20;;;;;;4212612;27;20069;-44
2024/01/10 08:26:37;;;;;;;18.38;11.85;;;15.70;45.60;;;;;;4196941;28;20096;-44
2024/01/10 08:29:19;;;;;;;20.75;13.35;;;15.70;45.20;;;;;;4219059;27;20054;-46
2024/01/10 08:32:01;;;;;;;21.00;12.15;;;15.60;45.50;;;;;;4210523;27;20096;-43
2024/01/10 08:34:44;;;;;;;20.02;14.05;;;15.50;45.00;;;;;;4195220;27;20055;-43
2024/01/10 08:37:27;;;;;;;18.85;13.02;;;15.40;45.50;;;;;;4203916;28;20047;-49
2024/01/10 08:40:11;;;;;;;20.45;13.45;;;15.30;44.90;;;;;;4203171;28;20051;-47
2024/01/10 08:42:53;;;;;;;18.17;11.75;;;15.30;45.00;;;;;;4204290;28;20567;-43
2024/01/10 08:45:34;;;;;;;20.52;12.95;;;15.40;46.90;;;;;;4203352;28;20136;-35
2024/01/10 08:48:15;;;;;;;19.10;12.32;;;15.50;45.60;;;;;;4204182;28;20090;-35
2024/01/10 08:50:56;;;;;;;19.77;12.93;;;15.50;44.30;;;;;;4215766;27;20058;-34
2024/01/10 08:53:38;;;;;;;20.40;12.20;;;15.50;44.60;;;;;;4203063;28;20641;-35
2024/01/10 08:56:20;;;;;;;17.50;12.60;;;15.50;43.90;;;;;;4198261;28;20185;-34
2024/01/10 08:59:01;;;;;;;;;;;15.60;44.10;;;;;;4208460;27;20059;-34
2024/01/10 09:01:44;;;;;;;17.38;11.50;;;15.70;45.80;;;;;;4218958;27;19983;-35
2024/01/10 09:04:25;;;;;;;20.02;12.85;;;15.70;45.40;;;;;;4214936;27;20059;-35
2024/01/10 09:07:09;;;;;;;;;;;15.70;42.40;;;;;;4217748;27;20478;-35
2024/01/10 09:09:51;;;;;;;18.92;13.27;;;15.60;44.40;;;;;;4219074;27;19926;-35
2024/01/10 09:12:32;;;;;;;20.08;13.85;;;15.60;44.10;;;;;;4212929;27;20058;-34
2024/01/10 09:15:14;;;;;;;21.40;13.38;;;15.50;43.10;;;;;;4204174;27;20055;-35
2024/01/10 09:17:55;;;;;;;16.80;11.65;;;15.50;45.70;;;;;;4198653;28;20051;-34
2024/01/10 09:20:36;;;;;;;18.52;12.70;;;15.40;43.00;;;;;;4199153;27;20418;-35
2024/01/10 09:23:18;;;;;;;18.98;12.90;;;15.30;43.10;;;;;;4187966;27;20052;-34
2024/01/10 09:26:01;;;;;;;16.83;12.70;;;15.20;43.20;;;;;;4186106;28;20101;-35
2024/01/10 09:28:42;;;;;;;19.23;12.48;;;15.00;43.40;;;;;;4185908;28;20056;-35
2024/01/10 09:31:23;;;;;;;20.80;13.70;;;14.80;44.10;;;;;;4210732;27;20176;-35
2024/01/10 09:34:05;;;;;;;18.38;12.30;;;14.70;44.00;;;;;;4204035;28;20055;-36
2024/01/10 09:36:46;;;;;;;19.70;11.77;;;14.70;42.50;;;;;;4203574;28;20102;-35
2024/01/10 09:39:27;;;;;;;20.50;13.13;;;14.70;45.00;;;;;;4190079;28;20410;-35
2024/01/10 09:42:10;;;;;;;18.70;12.25;;;14.70;44.20;;;;;;4204564;27;20047;-35
2024/01/10 09:44:51;;;;;;;17.98;12.23;;;14.70;43.10;;;;;;4221323;27;20059;-35
2024/01/10 09:47:33;;;;;;;14.70;10.32;;;14.70;41.60;;;;;;4205030;27;20112;-36
2024/01/10 09:50:14;;;;;;;18.20;10.90;;;14.70;42.20;;;;;;4218867;27;20058;-36
2024/01/10 09:53:07;;;;;;;17.52;11.43;;;14.80;43.70;;;;;;4214410;27;20047;-45
2024/01/10 09:55:48;;;;;;;16.40;10.38;;;14.80;42.60;;;;;;4184312;28;20071;-47
2024/01/10 09:58:38;;;;;;;19.58;12.43;;;14.90;43.30;;;;;;4186490;28;20101;-46
2024/01/10 10:01:21;;;;;;;18.38;10.27;;;14.90;43.10;;;;;;4186876;28;20055;-47
2024/01/10 10:04:03;;;;;;;15.80;10.10;;;14.90;42.40;;;;;;4212576;27;20108;-47
2024/01/10 10:06:44;;;;;;;17.58;12.52;;;14.90;43.50;;;;;;4205604;27;20065;-48
2024/01/10 10:09:27;;;;;;;17.75;10.65;;;14.90;44.20;;;;;;4203198;27;20058;-44
2024/01/10 10:12:08;;;;;;;18.10;12.05;;;15.00;41.80;;;;;;4218686;27;20050;-49
2024/01/10 10:14:51;;;;;;;;;;;15.00;41.90;;;;;;4220201;27;20063;-48
2024/01/10 10:17:32;;;;;;;18.65;11.43;;;15.00;42.20;;;;;;4219207;27;19958;-50
2024/01/10 10:20:15;;;;;;;16.48;9.90;;;15.00;41.20;;;;;;4218898;27;20054;-48
2024/01/10 10:23:01;;;;;;;16.50;11.10;;;15.10;43.70;;;;;;4224007;27;20058;-49
2024/01/10 10:25:44;;;;;;;17.05;11.63;;;15.10;42.20;;;;;;4223194;27;20079;-50
2024/01/10 10:28:31;;;;;;;17.92;12.75;;;15.20;43.90;;;;;;4221926;27;20059;-46
2024/01/10 10:31:18;;;;;;;19.27;12.80;;;15.30;42.80;;;;;;4223052;27;20054;-48
2024/01/10 10:34:02;;;;;;;17.60;11.63;;;15.20;41.10;;;;;;4205638;28;20054;-45
2024/01/10 10:36:44;;;;;;;17.92;10.48;;;15.10;42.40;;;;;;4206271;28;20066;-43
2024/01/10 10:39:26;;;;;;;16.90;11.13;;;15.00;42.40;;;;;;4206065;28;20055;-47
2024/01/10 10:42:08;;;;;;;19.38;12.77;;;15.00;44.20;;;;;;4206157;28;20087;-45
2024/01/10 10:44:51;;;;;;;15.13;10.75;;;14.90;42.00;;;;;;4212909;27;20112;-46
2024/01/10 10:47:38;;;;;;;17.00;10.98;;;14.90;42.90;;;;;;4207515;27;20051;-45
2024/01/10 10:50:22;;;;;;;16.00;11.35;;;14.80;43.70;;;;;;4205719;28;20051;-45
2024/01/10 10:53:04;;;;;;;15.40;11.40;;;14.70;43.30;;;;;;4189042;28;20055;-44
2024/01/10 10:55:48;;;;;;;16.75;9.90;;;14.80;44.20;;;;;;4189376;28;20055;-45
2024/01/10 10:58:29;;;;;;;16.58;11.00;;;14.80;42.10;;;;;;4219616;27;20137;-45
2024/01/10 11:01:12;;;;;;;;;;;14.90;41.30;;;;;;4219625;27;20059;-45
2024/01/10 11:03:57;;;;;;;15.90;9.95;;;14.90;41.60;;;;;;4204943;28;19927;-44
2024/01/10 11:06:38;;;;;;;14.65;11.23;;;14.90;41.30;;;;;;4191171;28;20380;-44
2024/01/10 11:09:23;;;;;;;16.20;8.82;;;14.90;40.30;;;;;;4206266;27;20371;-45
2024/01/10 11:12:17;;;;;;;15.55;9.38;;;15.00;42.20;;;;;;4206564;28;20051;-44
2024/01/10 11:15:15;;;;;;;16.35;11.32;;;15.00;41.90;;;;;;4206872;28;20066;-45
2024/01/10 11:18:14;;;;;;;15.55;9.40;;;15.00;43.80;;;;;;4205994;28;23253;-44
2024/01/10 11:21:20;;;;;;;14.88;9.48;;;15.10;44.90;;;;;;4205180;28;20120;-44
2024/01/10 11:24:02;;;;;;;14.35;9.98;;;15.20;44.30;;;;;;4197533;28;20080;-45
2024/01/10 11:26:45;;;;;;;14.98;10.15;;;15.30;46.40;;;;;;4221824;27;20119;-45
2024/01/10 11:29:29;;;;;;;15.52;10.02;;;15.30;43.20;;;;;;4222846;27;20058;-44
2024/01/10 11:32:15;;;;;;;15.73;9.88;;;15.40;44.00;;;;;;4202606;27;20509;-44
2024/01/10 11:34:58;;;;;;;14.82;9.60;;;15.40;42.80;;;;;;4209712;27;20055;-45
2024/01/10 11:37:44;;;;;;;16.25;10.30;;;15.50;41.40;;;;;;4221683;27;20173;-45
2024/01/10 11:40:48;;;;;;;16.10;11.45;;;15.40;43.50;;;;;;4218446;27;20502;-49
2024/01/10 11:43:30;;;;;;;16.05;10.45;;;15.30;42.10;;;;;;4217954;27;20585;-44
2024/01/10 11:46:12;;;;;;;13.63;9.23;;;15.20;42.20;;;;;;4220132;27;20402;-36
2024/01/10 11:48:54;;;;;;;16.17;11.15;;;15.10;42.10;;;;;;4213531;27;20531;-36
2024/01/10 11:51:37;;;;;;;15.63;10.82;;;15.00;45.30;;;;;;4205248;28;20122;-37
2024/01/10 11:54:37;;;;;;;15.80;11.05;;;15.00;44.70;;;;;;4214129;27;20054;-36
2024/01/10 11:57:22;;;;;;;16.15;11.23;;;14.90;43.30;;;;;;4211590;27;20059;-36
2024/01/10 12:00:07;;;;;;;16.55;11.93;;;14.90;43.00;;;;;;4205051;28;20051;-36
2024/01/10 12:02:49;;;;;;;16.27;11.20;;;14.80;44.30;;;;;;4204954;28;20178;-37
2024/01/10 12:05:31;;;;;;;15.52;11.27;;;14.70;43.00;;;;;;4205659;28;20132;-36
2024/01/10 12:08:12;;;;;;;18.35;11.15;;;14.60;43.80;;;;;;4204530;28;20096;-46
2024/01/10 12:11:02;;;;;;;18.45;11.48;;;14.60;43.80;;;;;;4236640;27;20050;-44
2024/01/10 12:13:43;;;;;;;18.77;12.02;;;14.50;44.30;;;;;;4203551;28;20050;-46
2024/01/10 12:16:24;;;;;;;14.73;11.00;;;14.50;45.70;;;;;;4204763;28;20090;-44
2024/01/10 12:19:05;;;;;;;;;;;14.50;46.20;;;;;;4205752;28;20198;-47
2024/01/10 12:21:47;;;;;;;17.77;10.93;;;14.60;46.20;;;;;;4204412;28;20034;-46
2024/01/10 12:24:28;;;;;;;;;;;14.70;44.30;;;;;;4204782;28;20047;-43
2024/01/10 12:27:11;;;;;;;16.45;10.90;;;14.70;44.10;;;;;;4204313;28;19927;-44
2024/01/10 12:29:52;;;;;;;17.42;10.65;;;14.70;43.60;;;;;;4204491;28;20132;-44
2024/01/10 12:32:33;;;;;;;16.35;11.38;;;14.60;44.60;;;;;;4203859;28;21135;-47
2024/01/10 12:35:18;;;;;;;15.35;10.73;;;14.60;46.10;;;;;;4204504;28;20097;-44
2024/01/10 12:37:59;;;;;;;14.38;10.50;;;14.50;45.70;;;;;;4204741;28;20196;-45
2024/01/10 12:40:40;;;;;;;15.27;10.18;;;14.50;46.30;;;;;;4204195;27;20205;-45
2024/01/10 12:43:23;;;;;;;15.68;10.02;;;14.50;46.80;;;;;;4215865;27;20051;-46
2024/01/10 12:46:05;;;;;;;14.32;9.35;;;14.50;46.20;;;;;;4211440;27;20184;-44
2024/01/10 12:48:46;;;;;;;15.25;9.45;;;14.40;45.40;;;;;;4204687;27;20055;-45
2024/01/10 12:51:29;;;;;;;13.43;9.77;;;14.30;46.40;;;;;;4201845;28;20055;-44
2024/01/10 12:54:09;;;;;;;16.10;10.07;;;14.30;46.00;;;;;;4185305;28;20162;-43
2024/01/10 12:56:51;;;;;;;15.00;10.07;;;14.30;44.40;;;;;;4204444;28;20055;-46
2024/01/10 12:59:34;;;;;;;15.25;10.77;;;14.30;45.10;;;;;;4220883;27;20513;-47
2024/01/10 13:02:15;;;;;;;15.50;9.82;;;14.20;46.20;;;;;;4221045;27;20074;-46
2024/01/10 13:04:56;;;;;;;16.00;10.75;;;14.20;46.20;;;;;;4220723;27;20194;-44
2024/01/10 13:07:37;;;;;;;15.57;10.10;;;14.10;45.90;;;;;;4220415;27;20046;-44
2024/01/10 13:10:18;;;;;;;14.65;10.45;;;13.90;45.60;;;;;;4212481;27;20133;-46
2024/01/10 13:12:59;;;;;;;15.85;10.63;;;13.80;45.70;;;;;;4213834;27;20078;-45
2024/01/10 13:15:42;;;;;;;12.55;9.80;;;13.70;47.10;;;;;;4220225;27;20153;-36
2024/01/10 13:18:23;;;;;;;15.80;8.88;;;13.60;46.90;;;;;;4203738;28;20055;-36
2024/01/10 13:21:05;;;;;;;12.90;9.30;;;13.60;46.70;;;;;;4219916;27;20055;-36
2024/01/10 13:23:46;;;;;;;12.18;9.10;;;13.60;45.90;;;;;;4210353;27;20078;-36
2024/01/10 13:26:27;;;;;;;14.05;9.88;;;13.60;45.90;;;;;;4219820;27;20513;-36
2024/01/10 13:29:08;;;;;;;13.57;9.73;;;13.60;46.20;;;;;;4218912;27;20050;-36
2024/01/10 13:31:51;;;;;;;15.10;9.73;;;13.50;46.00;;;;;;4203362;28;20059;-36
2024/01/10 13:34:32;;;;;;;14.98;9.52;;;13.50;46.20;;;;;;4204633;27;20210;-48
2024/01/10 13:37:13;;;;;;;14.75;10.40;;;13.40;47.40;;;;;;4210656;27;20082;-48
2024/01/10 13:39:54;;;;;;;13.63;9.75;;;13.30;46.70;;;;;;4203550;28;20063;-44
2024/01/10 13:42:35;;;;;;;12.88;8.93;;;13.30;47.30;;;;;;4209086;27;20051;-49
2024/01/10 13:45:18;;;;;;;13.82;9.95;;;13.20;47.00;;;;;;4203229;28;20076;-46
2024/01/10 13:48:00;;;;;;;14.30;9.30;;;13.10;45.10;;;;;;4203210;28;20055;-47